Cyril E King Airport (STT/TIST)



Flight Aircraft Arriving
CPX344
KMIA - Miami International Airport
United StatesFlorida Miami, Florida
CPX3279
TJSJ - Luis Munoz Marin International Airport
Puerto Rico San Juan, Puerto Rico
Flight Aircraft Departing
CPX343
KMIA - Miami International Airport
United StatesFlorida Miami, Florida
CPX3278
TJSJ - Luis Munoz Marin International Airport
Puerto Rico San Juan, Puerto Rico


Airport Information
Location: Charlotte Amalie, U.S.V.I
Coordinates: 18.3373 / -64.9733
Field Elevation: 21ft
Longest Runway: 6,998ft
ILS Approaches: YES
Landing Fees: $503 per flight
Jet A Price: $0.27/lbs

Current Weather
METAR: TIST 190053Z 05005KT 10SM FEW030 27/22 A2994 RMK AO2 SLP139 T02720222 $
TAF: TIST 182331Z 1900/1924 07008KT P6SM VCSH SCT030 FM191300 10010KT P6SM VCSH FEW025 SCT035 FM192200 07010KT P6SM FEW025

Recent Arrivals
Date Flight Type Depart
09/14/2021 CPX343 B738 Miami International Airport (KMIA)
08/10/2021 CPX343 B738 Miami International Airport (KMIA)
08/05/2021 CPX343 B738 Miami International Airport (KMIA)
Recent Departures
Date Flight Type Arrive
09/14/2021 CPX344 B738 Miami International Airport (KMIA)
08/11/2021 CPX344 B738 Miami International Airport (KMIA)
08/09/2021 CPX344 B738 Miami International Airport (KMIA)